sensor_id;sensor_type;location;lat;lon;timestamp;temperature;humidity
52209;DHT22;38507;53.132;6.394;2023-02-28T00:02:20;3.70;99.90
52209;DHT22;38507;53.132;6.394;2023-02-28T00:04:45;3.70;99.90
52209;DHT22;38507;53.132;6.394;2023-02-28T00:07:18;3.70;99.90
52209;DHT22;38507;53.132;6.394;2023-02-28T00:09:44;3.70;99.90
52209;DHT22;38507;53.132;6.394;2023-02-28T00:12:10;3.70;99.90
52209;DHT22;38507;53.132;6.394;2023-02-28T00:14:38;3.70;99.90
52209;DHT22;38507;53.132;6.394;2023-02-28T00:17:04;3.70;99.90
52209;DHT22;38507;53.132;6.394;2023-02-28T00:19:29;3.70;99.90
52209;DHT22;38507;53.132;6.394;2023-02-28T00:21:55;3.80;99.90
52209;DHT22;38507;53.132;6.394;2023-02-28T00:24:20;3.70;99.90
52209;DHT22;38507;53.132;6.394;2023-02-28T00:26:46;3.70;99.90
52209;DHT22;38507;53.132;6.394;2023-02-28T00:29:12;3.70;99.90
52209;DHT22;38507;53.132;6.394;2023-02-28T00:31:37;3.70;99.90
52209;DHT22;38507;53.132;6.394;2023-02-28T00:34:03;3.70;99.90
52209;DHT22;38507;53.132;6.394;2023-02-28T00:36:28;3.60;99.90
52209;DHT22;38507;53.132;6.394;2023-02-28T00:38:54;3.70;99.90
52209;DHT22;38507;53.132;6.394;2023-02-28T00:41:20;3.70;99.90
52209;DHT22;38507;53.132;6.394;2023-02-28T00:43:45;3.60;99.90
52209;DHT22;38507;53.132;6.394;2023-02-28T00:46:11;3.80;99.90
52209;DHT22;38507;53.132;6.394;2023-02-28T00:48:37;3.60;99.90
52209;DHT22;38507;53.132;6.394;2023-02-28T00:51:02;3.60;99.90
52209;DHT22;38507;53.132;6.394;2023-02-28T00:53:29;3.60;99.90
52209;DHT22;38507;53.132;6.394;2023-02-28T00:55:54;3.60;99.90
52209;DHT22;38507;53.132;6.394;2023-02-28T00:58:20;3.50;99.90
52209;DHT22;38507;53.132;6.394;2023-02-28T01:00:46;3.50;99.90
52209;DHT22;38507;53.132;6.394;2023-02-28T01:03:18;3.60;99.90
52209;DHT22;38507;53.132;6.394;2023-02-28T01:05:44;3.60;99.90
52209;DHT22;38507;53.132;6.394;2023-02-28T01:08:10;3.60;99.90
52209;DHT22;38507;53.132;6.394;2023-02-28T01:10:35;3.60;99.90
52209;DHT22;38507;53.132;6.394;2023-02-28T01:13:02;3.60;99.90
52209;DHT22;38507;53.132;6.394;2023-02-28T01:15:28;3.60;99.90
52209;DHT22;38507;53.132;6.394;2023-02-28T01:17:54;3.60;99.90
52209;DHT22;38507;53.132;6.394;2023-02-28T01:20:19;3.60;99.90
52209;DHT22;38507;53.132;6.394;2023-02-28T01:22:45;3.60;99.90
52209;DHT22;38507;53.132;6.394;2023-02-28T01:25:12;3.60;99.90
52209;DHT22;38507;53.132;6.394;2023-02-28T01:27:37;3.60;99.90
52209;DHT22;38507;53.132;6.394;2023-02-28T01:30:06;3.50;99.90
52209;DHT22;38507;53.132;6.394;2023-02-28T01:32:32;3.50;99.90
52209;DHT22;38507;53.132;6.394;2023-02-28T01:34:57;3.50;99.90
52209;DHT22;38507;53.132;6.394;2023-02-28T01:37:23;3.50;99.90
52209;DHT22;38507;53.132;6.394;2023-02-28T01:39:48;3.50;99.90
52209;DHT22;38507;53.132;6.394;2023-02-28T01:42:14;3.50;99.90
52209;DHT22;38507;53.132;6.394;2023-02-28T01:47:43;3.50;99.90
52209;DHT22;38507;53.132;6.394;2023-02-28T01:50:15;3.50;99.90
52209;DHT22;38507;53.132;6.394;2023-02-28T01:52:42;3.50;99.90
52209;DHT22;38507;53.132;6.394;2023-02-28T01:55:10;3.60;99.90
52209;DHT22;38507;53.132;6.394;2023-02-28T01:57:42;3.60;99.90
52209;DHT22;38507;53.132;6.394;2023-02-28T02:00:13;3.60;99.90
52209;DHT22;38507;53.132;6.394;2023-02-28T02:02:46;3.60;99.90
52209;DHT22;38507;53.132;6.394;2023-02-28T02:05:19;3.60;99.90
52209;DHT22;38507;53.132;6.394;2023-02-28T02:07:47;3.60;99.90
52209;DHT22;38507;53.132;6.394;2023-02-28T02:10:21;3.60;99.90
52209;DHT22;38507;53.132;6.394;2023-02-28T02:13:19;3.60;99.90
52209;DHT22;38507;53.132;6.394;2023-02-28T02:16:04;3.60;99.90
52209;DHT22;38507;53.132;6.394;2023-02-28T02:18:40;3.60;99.90
52209;DHT22;38507;53.132;6.394;2023-02-28T02:30:31;3.70;99.90
52209;DHT22;38507;53.132;6.394;2023-02-28T02:38:21;3.70;99.90
52209;DHT22;38507;53.132;6.394;2023-02-28T02:43:21;3.70;99.90
52209;DHT22;38507;53.132;6.394;2023-02-28T02:45:52;3.70;99.90
52209;DHT22;38507;53.132;6.394;2023-02-28T02:48:21;3.70;99.90
52209;DHT22;38507;53.132;6.394;2023-02-28T02:50:52;3.70;99.90
52209;DHT22;38507;53.132;6.394;2023-02-28T02:53:23;3.70;99.90
52209;DHT22;38507;53.132;6.394;2023-02-28T02:55:52;3.70;99.90
52209;DHT22;38507;53.132;6.394;2023-02-28T02:58:24;3.80;99.90
52209;DHT22;38507;53.132;6.394;2023-02-28T03:00:58;3.80;99.90
52209;DHT22;38507;53.132;6.394;2023-02-28T03:03:26;3.80;99.90
52209;DHT22;38507;53.132;6.394;2023-02-28T03:06:00;3.80;99.90
52209;DHT22;38507;53.132;6.394;2023-02-28T03:08:27;3.80;99.90
52209;DHT22;38507;53.132;6.394;2023-02-28T03:11:02;3.80;99.90
52209;DHT22;38507;53.132;6.394;2023-02-28T03:16:35;3.80;99.90
52209;DHT22;38507;53.132;6.394;2023-02-28T03:19:24;3.80;99.90
52209;DHT22;38507;53.132;6.394;2023-02-28T03:24:53;3.90;99.90
52209;DHT22;38507;53.132;6.394;2023-02-28T03:27:30;3.90;99.90
52209;DHT22;38507;53.132;6.394;2023-02-28T03:32:26;3.90;99.90
52209;DHT22;38507;53.132;6.394;2023-02-28T03:35:16;3.90;99.90
52209;DHT22;38507;53.132;6.394;2023-02-28T03:38:03;3.90;99.90
52209;DHT22;38507;53.132;6.394;2023-02-28T03:40:32;3.90;99.90
52209;DHT22;38507;53.132;6.394;2023-02-28T03:43:04;3.90;99.90
52209;DHT22;38507;53.132;6.394;2023-02-28T03:45:33;4.20;99.90
52209;DHT22;38507;53.132;6.394;2023-02-28T03:48:16;4.50;99.90
52209;DHT22;38507;53.132;6.394;2023-02-28T03:50:46;3.90;99.90
52209;DHT22;38507;53.132;6.394;2023-02-28T03:53:14;3.90;99.90
52209;DHT22;38507;53.132;6.394;2023-02-28T03:55:45;3.90;99.90
52209;DHT22;38507;53.132;6.394;2023-02-28T03:58:17;3.90;99.90
52209;DHT22;38507;53.132;6.394;2023-02-28T04:00:49;3.90;99.90
52209;DHT22;38507;53.132;6.394;2023-02-28T04:03:16;3.80;99.90
52209;DHT22;38507;53.132;6.394;2023-02-28T04:05:52;3.80;99.90
52209;DHT22;38507;53.132;6.394;2023-02-28T04:08:18;3.80;99.90
52209;DHT22;38507;53.132;6.394;2023-02-28T04:10:49;3.80;99.90
52209;DHT22;38507;53.132;6.394;2023-02-28T04:13:16;4.50;99.90
52209;DHT22;38507;53.132;6.394;2023-02-28T04:15:41;3.70;99.90
52209;DHT22;38507;53.132;6.394;2023-02-28T04:18:07;3.70;99.90
52209;DHT22;38507;53.132;6.394;2023-02-28T04:20:33;3.70;99.90
52209;DHT22;38507;53.132;6.394;2023-02-28T04:22:59;3.70;99.90
52209;DHT22;38507;53.132;6.394;2023-02-28T04:25:24;3.70;99.90
52209;DHT22;38507;53.132;6.394;2023-02-28T04:27:50;3.70;99.90
52209;DHT22;38507;53.132;6.394;2023-02-28T04:30:16;4.30;99.90
52209;DHT22;38507;53.132;6.394;2023-02-28T04:32:41;3.60;99.90
52209;DHT22;38507;53.132;6.394;2023-02-28T04:35:07;3.60;99.90
52209;DHT22;38507;53.132;6.394;2023-02-28T04:37:33;3.60;99.90
52209;DHT22;38507;53.132;6.394;2023-02-28T04:40:01;3.50;99.90
52209;DHT22;38507;53.132;6.394;2023-02-28T04:42:26;3.50;99.90
52209;DHT22;38507;53.132;6.394;2023-02-28T04:44:52;3.40;99.90
52209;DHT22;38507;53.132;6.394;2023-02-28T04:47:18;3.40;99.90
52209;DHT22;38507;53.132;6.394;2023-02-28T04:49:43;3.40;99.90
52209;DHT22;38507;53.132;6.394;2023-02-28T04:52:09;3.40;99.90
52209;DHT22;38507;53.132;6.394;2023-02-28T04:54:35;3.30;99.90
52209;DHT22;38507;53.132;6.394;2023-02-28T04:57:03;3.50;99.90
52209;DHT22;38507;53.132;6.394;2023-02-28T04:59:29;3.30;99.90
52209;DHT22;38507;53.132;6.394;2023-02-28T05:01:55;3.30;99.90
52209;DHT22;38507;53.132;6.394;2023-02-28T05:04:20;3.20;99.90
52209;DHT22;38507;53.132;6.394;2023-02-28T05:06:46;3.20;99.90
52209;DHT22;38507;53.132;6.394;2023-02-28T05:09:12;4.10;99.90
52209;DHT22;38507;53.132;6.394;2023-02-28T05:11:38;3.20;99.90
52209;DHT22;38507;53.132;6.394;2023-02-28T05:14:10;3.20;99.90
52209;DHT22;38507;53.132;6.394;2023-02-28T05:16:36;3.10;99.90
52209;DHT22;38507;53.132;6.394;2023-02-28T05:19:02;3.50;99.90
52209;DHT22;38507;53.132;6.394;2023-02-28T05:21:34;3.10;99.90
52209;DHT22;38507;53.132;6.394;2023-02-28T05:24:02;3.10;99.90
52209;DHT22;38507;53.132;6.394;2023-02-28T05:26:28;3.00;99.90
52209;DHT22;38507;53.132;6.394;2023-02-28T05:28:55;3.30;99.90
52209;DHT22;38507;53.132;6.394;2023-02-28T05:31:21;3.00;99.90
52209;DHT22;38507;53.132;6.394;2023-02-28T05:33:47;3.00;99.90
52209;DHT22;38507;53.132;6.394;2023-02-28T05:36:13;3.00;99.90
52209;DHT22;38507;53.132;6.394;2023-02-28T05:38:38;3.00;99.90
52209;DHT22;38507;53.132;6.394;2023-02-28T05:41:11;3.50;99.90
52209;DHT22;38507;53.132;6.394;2023-02-28T05:43:37;2.90;99.90
52209;DHT22;38507;53.132;6.394;2023-02-28T05:46:07;2.90;99.90
52209;DHT22;38507;53.132;6.394;2023-02-28T05:48:34;3.80;99.90
52209;DHT22;38507;53.132;6.394;2023-02-28T05:51:00;2.90;99.90
52209;DHT22;38507;53.132;6.394;2023-02-28T05:53:26;2.90;99.90
52209;DHT22;38507;53.132;6.394;2023-02-28T05:55:52;2.80;99.90
52209;DHT22;38507;53.132;6.394;2023-02-28T05:58:18;2.80;99.90
52209;DHT22;38507;53.132;6.394;2023-02-28T06:00:44;2.80;99.90
52209;DHT22;38507;53.132;6.394;2023-02-28T06:03:09;2.80;99.90
52209;DHT22;38507;53.132;6.394;2023-02-28T06:05:35;2.80;99.90
52209;DHT22;38507;53.132;6.394;2023-02-28T06:08:01;2.80;99.90
52209;DHT22;38507;53.132;6.394;2023-02-28T06:10:26;2.70;99.90
52209;DHT22;38507;53.132;6.394;2023-02-28T06:12:52;3.70;99.90
52209;DHT22;38507;53.132;6.394;2023-02-28T06:15:18;2.70;99.90
52209;DHT22;38507;53.132;6.394;2023-02-28T06:17:44;2.70;99.90
52209;DHT22;38507;53.132;6.394;2023-02-28T06:20:11;2.60;99.90
52209;DHT22;38507;53.132;6.394;2023-02-28T06:22:38;2.60;99.90
52209;DHT22;38507;53.132;6.394;2023-02-28T06:25:05;2.60;99.90
52209;DHT22;38507;53.132;6.394;2023-02-28T06:27:33;2.60;99.90
52209;DHT22;38507;53.132;6.394;2023-02-28T06:29:58;2.60;99.90
52209;DHT22;38507;53.132;6.394;2023-02-28T06:32:24;2.50;99.90
52209;DHT22;38507;53.132;6.394;2023-02-28T06:34:50;2.50;99.90
52209;DHT22;38507;53.132;6.394;2023-02-28T06:37:17;3.20;99.90
52209;DHT22;38507;53.132;6.394;2023-02-28T06:39:43;2.50;99.90
52209;DHT22;38507;53.132;6.394;2023-02-28T06:42:08;2.40;99.90
52209;DHT22;38507;53.132;6.394;2023-02-28T06:44:34;2.60;99.90
52209;DHT22;38507;53.132;6.394;2023-02-28T06:47:04;2.40;99.90
52209;DHT22;38507;53.132;6.394;2023-02-28T06:49:31;2.40;99.90
52209;DHT22;38507;53.132;6.394;2023-02-28T06:51:57;2.40;99.90
52209;DHT22;38507;53.132;6.394;2023-02-28T06:54:23;2.30;99.90
52209;DHT22;38507;53.132;6.394;2023-02-28T06:56:49;2.30;99.90
52209;DHT22;38507;53.132;6.394;2023-02-28T06:59:15;2.30;99.90
52209;DHT22;38507;53.132;6.394;2023-02-28T07:01:41;2.40;99.90
52209;DHT22;38507;53.132;6.394;2023-02-28T07:04:07;2.30;99.90
52209;DHT22;38507;53.132;6.394;2023-02-28T07:06:33;2.30;99.90
52209;DHT22;38507;53.132;6.394;2023-02-28T07:08:59;3.00;99.90
52209;DHT22;38507;53.132;6.394;2023-02-28T07:11:26;3.00;99.90
52209;DHT22;38507;53.132;6.394;2023-02-28T07:13:53;2.20;99.90
52209;DHT22;38507;53.132;6.394;2023-02-28T07:16:19;2.20;99.90
52209;DHT22;38507;53.132;6.394;2023-02-28T07:18:45;2.20;99.90
52209;DHT22;38507;53.132;6.394;2023-02-28T07:21:11;2.20;99.90
52209;DHT22;38507;53.132;6.394;2023-02-28T07:23:37;2.20;99.90
52209;DHT22;38507;53.132;6.394;2023-02-28T07:26:07;2.80;99.90
52209;DHT22;38507;53.132;6.394;2023-02-28T07:28:36;2.20;99.90
52209;DHT22;38507;53.132;6.394;2023-02-28T07:31:05;2.20;99.90
52209;DHT22;38507;53.132;6.394;2023-02-28T07:33:32;2.20;99.90
52209;DHT22;38507;53.132;6.394;2023-02-28T07:36:06;2.20;99.90
52209;DHT22;38507;53.132;6.394;2023-02-28T07:38:34;2.20;99.90
52209;DHT22;38507;53.132;6.394;2023-02-28T07:41:00;2.20;99.90
52209;DHT22;38507;53.132;6.394;2023-02-28T07:43:30;2.20;99.90
52209;DHT22;38507;53.132;6.394;2023-02-28T07:45:55;3.20;99.90
52209;DHT22;38507;53.132;6.394;2023-02-28T07:48:21;2.20;99.90
52209;DHT22;38507;53.132;6.394;2023-02-28T07:50:57;2.20;99.90
52209;DHT22;38507;53.132;6.394;2023-02-28T07:53:24;2.30;99.90
52209;DHT22;38507;53.132;6.394;2023-02-28T07:55:49;3.10;99.90
52209;DHT22;38507;53.132;6.394;2023-02-28T07:58:15;2.30;99.90
52209;DHT22;38507;53.132;6.394;2023-02-28T08:00:40;2.30;99.90
52209;DHT22;38507;53.132;6.394;2023-02-28T08:03:07;2.40;99.90
52209;DHT22;38507;53.132;6.394;2023-02-28T08:05:38;2.40;99.90
52209;DHT22;38507;53.132;6.394;2023-02-28T08:08:04;3.10;99.90
52209;DHT22;38507;53.132;6.394;2023-02-28T08:10:30;2.40;99.90
52209;DHT22;38507;53.132;6.394;2023-02-28T08:12:55;2.40;99.90
52209;DHT22;38507;53.132;6.394;2023-02-28T08:15:21;2.40;99.90
52209;DHT22;38507;53.132;6.394;2023-02-28T08:17:47;2.50;99.90
52209;DHT22;38507;53.132;6.394;2023-02-28T08:20:12;3.00;99.90
52209;DHT22;38507;53.132;6.394;2023-02-28T08:22:38;2.50;99.90
52209;DHT22;38507;53.132;6.394;2023-02-28T08:25:04;2.50;99.90
52209;DHT22;38507;53.132;6.394;2023-02-28T08:27:32;2.60;99.90
52209;DHT22;38507;53.132;6.394;2023-02-28T08:29:58;2.60;99.90
52209;DHT22;38507;53.132;6.394;2023-02-28T08:32:23;2.70;99.90
52209;DHT22;38507;53.132;6.394;2023-02-28T08:34:49;3.60;99.90
52209;DHT22;38507;53.132;6.394;2023-02-28T08:37:15;2.80;99.90
52209;DHT22;38507;53.132;6.394;2023-02-28T08:39:40;2.80;99.90
52209;DHT22;38507;53.132;6.394;2023-02-28T08:42:06;2.90;99.90
52209;DHT22;38507;53.132;6.394;2023-02-28T08:44:32;3.00;99.90
52209;DHT22;38507;53.132;6.394;2023-02-28T08:46:57;3.00;99.90
52209;DHT22;38507;53.132;6.394;2023-02-28T08:49:23;3.10;99.90
52209;DHT22;38507;53.132;6.394;2023-02-28T08:51:49;3.40;99.90
52209;DHT22;38507;53.132;6.394;2023-02-28T08:54:14;3.80;99.90
52209;DHT22;38507;53.132;6.394;2023-02-28T08:56:45;4.00;99.90
52209;DHT22;38507;53.132;6.394;2023-02-28T08:59:13;4.00;99.90
52209;DHT22;38507;53.132;6.394;2023-02-28T09:01:38;4.10;99.90
52209;DHT22;38507;53.132;6.394;2023-02-28T09:04:04;3.30;99.90
52209;DHT22;38507;53.132;6.394;2023-02-28T09:06:32;3.40;99.90
52209;DHT22;38507;53.132;6.394;2023-02-28T09:08:58;3.40;99.90
52209;DHT22;38507;53.132;6.394;2023-02-28T09:11:25;4.00;99.90
52209;DHT22;38507;53.132;6.394;2023-02-28T09:13:51;3.50;99.90
52209;DHT22;38507;53.132;6.394;2023-02-28T09:16:17;3.50;99.90
52209;DHT22;38507;53.132;6.394;2023-02-28T09:18:43;3.60;99.90
52209;DHT22;38507;53.132;6.394;2023-02-28T09:21:11;3.60;99.90
52209;DHT22;38507;53.132;6.394;2023-02-28T09:23:40;3.70;99.90
52209;DHT22;38507;53.132;6.394;2023-02-28T09:26:06;4.60;99.90
52209;DHT22;38507;53.132;6.394;2023-02-28T09:28:32;3.80;99.90
52209;DHT22;38507;53.132;6.394;2023-02-28T09:30:58;4.70;99.90
52209;DHT22;38507;53.132;6.394;2023-02-28T09:33:24;4.60;99.90
52209;DHT22;38507;53.132;6.394;2023-02-28T09:35:50;3.90;99.90
52209;DHT22;38507;53.132;6.394;2023-02-28T09:38:17;4.40;99.90
52209;DHT22;38507;53.132;6.394;2023-02-28T09:40:50;4.20;99.90
52209;DHT22;38507;53.132;6.394;2023-02-28T09:43:18;4.40;99.90
52209;DHT22;38507;53.132;6.394;2023-02-28T09:48:39;4.90;99.90
52209;DHT22;38507;53.132;6.394;2023-02-28T09:53:48;5.40;99.90
52209;DHT22;38507;53.132;6.394;2023-02-28T09:56:20;6.00;99.90
52209;DHT22;38507;53.132;6.394;2023-02-28T09:59:13;6.00;99.90
52209;DHT22;38507;53.132;6.394;2023-02-28T10:04:46;6.40;99.90
52209;DHT22;38507;53.132;6.394;2023-02-28T10:09:58;6.70;99.90
52209;DHT22;38507;53.132;6.394;2023-02-28T10:12:28;6.90;99.90
52209;DHT22;38507;53.132;6.394;2023-02-28T10:14:55;7.10;99.90
52209;DHT22;38507;53.132;6.394;2023-02-28T10:17:35;7.20;99.90
52209;DHT22;38507;53.132;6.394;2023-02-28T10:20:06;7.90;99.90
52209;DHT22;38507;53.132;6.394;2023-02-28T10:22:58;7.40;99.90
52209;DHT22;38507;53.132;6.394;2023-02-28T10:25:28;7.50;99.90
52209;DHT22;38507;53.132;6.394;2023-02-28T10:28:01;7.70;99.90
52209;DHT22;38507;53.132;6.394;2023-02-28T10:30:31;7.80;99.90
52209;DHT22;38507;53.132;6.394;2023-02-28T10:32:56;7.90;99.90
52209;DHT22;38507;53.132;6.394;2023-02-28T10:35:25;8.50;99.90
52209;DHT22;38507;53.132;6.394;2023-02-28T10:38:03;8.60;99.90
52209;DHT22;38507;53.132;6.394;2023-02-28T10:40:35;8.70;99.90
52209;DHT22;38507;53.132;6.394;2023-02-28T10:43:02;8.30;99.90
52209;DHT22;38507;53.132;6.394;2023-02-28T10:45:31;8.60;99.90
52209;DHT22;38507;53.132;6.394;2023-02-28T10:48:04;8.70;99.90
52209;DHT22;38507;53.132;6.394;2023-02-28T10:53:28;8.90;99.90
52209;DHT22;38507;53.132;6.394;2023-02-28T10:56:21;9.20;99.90
52209;DHT22;38507;53.132;6.394;2023-02-28T11:01:43;9.60;99.90
52209;DHT22;38507;53.132;6.394;2023-02-28T11:09:38;9.80;99.90
52209;DHT22;38507;53.132;6.394;2023-02-28T11:12:07;9.80;99.90
52209;DHT22;38507;53.132;6.394;2023-02-28T11:14:47;9.70;99.90
52209;DHT22;38507;53.132;6.394;2023-02-28T11:17:26;9.50;99.90
52209;DHT22;38507;53.132;6.394;2023-02-28T11:19:58;10.20;99.90
52209;DHT22;38507;53.132;6.394;2023-02-28T11:22:27;10.40;99.90
52209;DHT22;38507;53.132;6.394;2023-02-28T11:25:08;10.60;99.90
52209;DHT22;38507;53.132;6.394;2023-02-28T11:27:49;10.00;99.90
52209;DHT22;38507;53.132;6.394;2023-02-28T11:30:36;10.40;99.90
52209;DHT22;38507;53.132;6.394;2023-02-28T11:33:22;10.20;99.90
52209;DHT22;38507;53.132;6.394;2023-02-28T11:35:49;10.70;99.90
52209;DHT22;38507;53.132;6.394;2023-02-28T11:38:15;10.10;99.90
52209;DHT22;38507;53.132;6.394;2023-02-28T11:41:09;10.70;99.90
52209;DHT22;38507;53.132;6.394;2023-02-28T11:44:01;10.30;99.90
52209;DHT22;38507;53.132;6.394;2023-02-28T11:47:14;10.30;99.90
52209;DHT22;38507;53.132;6.394;2023-02-28T11:51:50;10.90;99.90
52209;DHT22;38507;53.132;6.394;2023-02-28T11:54:51;10.50;99.90
52209;DHT22;38507;53.132;6.394;2023-02-28T11:57:37;10.50;99.90
52209;DHT22;38507;53.132;6.394;2023-02-28T12:00:31;10.70;99.90
52209;DHT22;38507;53.132;6.394;2023-02-28T12:03:23;10.90;99.90
52209;DHT22;38507;53.132;6.394;2023-02-28T12:06:18;11.80;99.90
52209;DHT22;38507;53.132;6.394;2023-02-28T12:12:15;11.10;99.90
52209;DHT22;38507;53.132;6.394;2023-02-28T12:20:08;11.70;99.90
52209;DHT22;38507;53.132;6.394;2023-02-28T12:26:05;11.00;99.90
52209;DHT22;38507;53.132;6.394;2023-02-28T12:28:34;10.90;99.90
52209;DHT22;38507;53.132;6.394;2023-02-28T12:31:09;11.20;99.90
52209;DHT22;38507;53.132;6.394;2023-02-28T12:33:40;11.10;99.90
52209;DHT22;38507;53.132;6.394;2023-02-28T12:36:11;11.30;99.90
52209;DHT22;38507;53.132;6.394;2023-02-28T12:38:47;11.40;99.90
52209;DHT22;38507;53.132;6.394;2023-02-28T12:41:17;11.20;99.90
52209;DHT22;38507;53.132;6.394;2023-02-28T12:43:48;11.30;99.90
52209;DHT22;38507;53.132;6.394;2023-02-28T12:46:29;11.60;99.90
52209;DHT22;38507;53.132;6.394;2023-02-28T12:48:56;11.70;99.90
52209;DHT22;38507;53.132;6.394;2023-02-28T12:51:24;11.70;99.90
52209;DHT22;38507;53.132;6.394;2023-02-28T12:54:01;11.80;99.90
52209;DHT22;38507;53.132;6.394;2023-02-28T13:07:32;12.00;99.90
52209;DHT22;38507;53.132;6.394;2023-02-28T13:10:04;11.90;99.90
52209;DHT22;38507;53.132;6.394;2023-02-28T13:12:31;12.10;99.90
52209;DHT22;38507;53.132;6.394;2023-02-28T13:15:19;12.10;99.90
52209;DHT22;38507;53.132;6.394;2023-02-28T13:17:54;12.50;99.90
52209;DHT22;38507;53.132;6.394;2023-02-28T13:20:26;12.30;99.90
52209;DHT22;38507;53.132;6.394;2023-02-28T13:22:53;12.20;99.90
52209;DHT22;38507;53.132;6.394;2023-02-28T13:27:57;12.40;99.90
52209;DHT22;38507;53.132;6.394;2023-02-28T13:33:35;12.60;99.90
52209;DHT22;38507;53.132;6.394;2023-02-28T13:36:29;12.80;99.90
52209;DHT22;38507;53.132;6.394;2023-02-28T13:39:45;12.70;99.90
52209;DHT22;38507;53.132;6.394;2023-02-28T13:41:49;12.80;99.90
52209;DHT22;38507;53.132;6.394;2023-02-28T13:44:16;12.90;99.90
52209;DHT22;38507;53.132;6.394;2023-02-28T14:02:29;13.30;99.90
52209;DHT22;38507;53.132;6.394;2023-02-28T14:05:05;13.20;99.90
52209;DHT22;38507;53.132;6.394;2023-02-28T14:07:38;13.10;99.90
52209;DHT22;38507;53.132;6.394;2023-02-28T14:10:08;13.00;99.50
52209;DHT22;38507;53.132;6.394;2023-02-28T14:15:41;12.40;99.70
52209;DHT22;38507;53.132;6.394;2023-02-28T14:20:48;12.30;99.10
52209;DHT22;38507;53.132;6.394;2023-02-28T14:23:40;12.20;99.90
52209;DHT22;38507;53.132;6.394;2023-02-28T14:26:26;11.90;99.90
52209;DHT22;38507;53.132;6.394;2023-02-28T14:29:30;12.00;98.80
52209;DHT22;38507;53.132;6.394;2023-02-28T14:34:55;12.10;99.00
52209;DHT22;38507;53.132;6.394;2023-02-28T14:37:33;12.20;98.90
52209;DHT22;38507;53.132;6.394;2023-02-28T14:40:02;12.30;97.90
52209;DHT22;38507;53.132;6.394;2023-02-28T14:42:34;12.30;99.90
52209;DHT22;38507;53.132;6.394;2023-02-28T14:45:01;12.20;99.10
52209;DHT22;38507;53.132;6.394;2023-02-28T14:47:34;12.40;99.90
52209;DHT22;38507;53.132;6.394;2023-02-28T14:50:02;12.50;99.90
52209;DHT22;38507;53.132;6.394;2023-02-28T14:52:31;12.50;99.40
52209;DHT22;38507;53.132;6.394;2023-02-28T14:55:13;12.50;99.50
52209;DHT22;38507;53.132;6.394;2023-02-28T14:57:42;12.60;97.80
52209;DHT22;38507;53.132;6.394;2023-02-28T15:00:27;12.50;99.00
52209;DHT22;38507;53.132;6.394;2023-02-28T15:02:54;12.50;98.10
52209;DHT22;38507;53.132;6.394;2023-02-28T15:05:32;12.50;99.50
52209;DHT22;38507;53.132;6.394;2023-02-28T15:08:15;12.60;99.20
52209;DHT22;38507;53.132;6.394;2023-02-28T15:11:02;12.50;98.60
52209;DHT22;38507;53.132;6.394;2023-02-28T15:18:48;12.20;98.20
52209;DHT22;38507;53.132;6.394;2023-02-28T15:21:35;12.20;97.90
52209;DHT22;38507;53.132;6.394;2023-02-28T15:24:20;12.10;97.30
52209;DHT22;38507;53.132;6.394;2023-02-28T15:26:58;12.20;98.90
52209;DHT22;38507;53.132;6.394;2023-02-28T15:29:27;12.20;97.90
52209;DHT22;38507;53.132;6.394;2023-02-28T15:32:06;12.00;97.90
52209;DHT22;38507;53.132;6.394;2023-02-28T15:37:02;12.10;98.10
52209;DHT22;38507;53.132;6.394;2023-02-28T15:39:47;12.00;97.70
52209;DHT22;38507;53.132;6.394;2023-02-28T15:42:21;11.90;97.30
52209;DHT22;38507;53.132;6.394;2023-02-28T15:44:47;11.90;97.70
52209;DHT22;38507;53.132;6.394;2023-02-28T15:47:22;11.90;98.10
52209;DHT22;38507;53.132;6.394;2023-02-28T15:49:53;12.00;97.60
52209;DHT22;38507;53.132;6.394;2023-02-28T15:52:40;11.80;97.60
52209;DHT22;38507;53.132;6.394;2023-02-28T15:55:27;11.70;97.50
52209;DHT22;38507;53.132;6.394;2023-02-28T15:57:55;11.90;96.90
52209;DHT22;38507;53.132;6.394;2023-02-28T16:00:25;11.50;98.10
52209;DHT22;38507;53.132;6.394;2023-02-28T16:02:51;11.50;98.10
52209;DHT22;38507;53.132;6.394;2023-02-28T16:05:28;11.30;98.50
52209;DHT22;38507;53.132;6.394;2023-02-28T16:07:57;11.20;98.30
52209;DHT22;38507;53.132;6.394;2023-02-28T16:10:24;11.20;98.40
52209;DHT22;38507;53.132;6.394;2023-02-28T16:12:56;10.90;98.10
52209;DHT22;38507;53.132;6.394;2023-02-28T16:15:26;10.60;97.70
52209;DHT22;38507;53.132;6.394;2023-02-28T16:17:53;10.50;98.20
52209;DHT22;38507;53.132;6.394;2023-02-28T16:20:28;10.40;98.20
52209;DHT22;38507;53.132;6.394;2023-02-28T16:22:54;10.20;98.10
52209;DHT22;38507;53.132;6.394;2023-02-28T16:25:28;10.00;97.10
52209;DHT22;38507;53.132;6.394;2023-02-28T16:27:58;10.10;98.40
52209;DHT22;38507;53.132;6.394;2023-02-28T16:30:28;9.90;98.50
52209;DHT22;38507;53.132;6.394;2023-02-28T16:32:57;9.70;98.50
52209;DHT22;38507;53.132;6.394;2023-02-28T16:35:23;9.80;98.70
52209;DHT22;38507;53.132;6.394;2023-02-28T16:37:50;9.80;98.60
52209;DHT22;38507;53.132;6.394;2023-02-28T16:40:19;9.80;99.10
52209;DHT22;38507;53.132;6.394;2023-02-28T16:42:47;10.00;99.20
52209;DHT22;38507;53.132;6.394;2023-02-28T16:45:23;10.00;99.10
52209;DHT22;38507;53.132;6.394;2023-02-28T16:47:49;10.20;99.20
52209;DHT22;38507;53.132;6.394;2023-02-28T16:50:23;10.00;99.10
52209;DHT22;38507;53.132;6.394;2023-02-28T16:52:49;9.80;98.50
52209;DHT22;38507;53.132;6.394;2023-02-28T16:55:15;10.20;99.20
52209;DHT22;38507;53.132;6.394;2023-02-28T16:57:41;9.30;99.00
52209;DHT22;38507;53.132;6.394;2023-02-28T17:00:10;9.00;99.30
52209;DHT22;38507;53.132;6.394;2023-02-28T17:02:36;8.80;99.30
52209;DHT22;38507;53.132;6.394;2023-02-28T17:05:02;8.60;99.70
52209;DHT22;38507;53.132;6.394;2023-02-28T17:07:29;8.30;99.90
52209;DHT22;38507;53.132;6.394;2023-02-28T17:09:55;8.10;99.90
52209;DHT22;38507;53.132;6.394;2023-02-28T17:12:20;7.90;99.90
52209;DHT22;38507;53.132;6.394;2023-02-28T17:14:46;7.90;99.90
52209;DHT22;38507;53.132;6.394;2023-02-28T17:17:18;7.50;99.90
52209;DHT22;38507;53.132;6.394;2023-02-28T17:19:45;7.30;99.90
52209;DHT22;38507;53.132;6.394;2023-02-28T17:22:11;7.80;99.90
52209;DHT22;38507;53.132;6.394;2023-02-28T17:24:36;7.00;99.90
52209;DHT22;38507;53.132;6.394;2023-02-28T17:27:03;6.90;99.90
52209;DHT22;38507;53.132;6.394;2023-02-28T17:29:28;6.70;99.90
52209;DHT22;38507;53.132;6.394;2023-02-28T17:31:54;6.60;99.90
52209;DHT22;38507;53.132;6.394;2023-02-28T17:34:21;6.40;99.90
52209;DHT22;38507;53.132;6.394;2023-02-28T17:36:48;6.30;99.90
52209;DHT22;38507;53.132;6.394;2023-02-28T17:39:15;6.20;99.90
52209;DHT22;38507;53.132;6.394;2023-02-28T17:41:45;6.00;99.90
52209;DHT22;38507;53.132;6.394;2023-02-28T17:44:10;5.80;99.90
52209;DHT22;38507;53.132;6.394;2023-02-28T17:46:36;5.70;99.90
52209;DHT22;38507;53.132;6.394;2023-02-28T17:49:03;5.60;99.90
52209;DHT22;38507;53.132;6.394;2023-02-28T17:51:28;5.30;99.90
52209;DHT22;38507;53.132;6.394;2023-02-28T17:53:54;5.20;99.90
52209;DHT22;38507;53.132;6.394;2023-02-28T17:56:22;5.10;99.90